createdAt,value
2023-01-28T00:02:36.362Z,101082.61
2023-01-28T00:05:26.713Z,101086.73
2023-01-28T00:08:15.589Z,101090.38
2023-01-28T00:11:06.070Z,101085.11
2023-01-28T00:13:55.059Z,101084.81
2023-01-28T00:16:43.831Z,101089.62
2023-01-28T00:19:33.220Z,101095.58
2023-01-28T00:22:22.603Z,101093.73
2023-01-28T00:25:11.377Z,101092.79
2023-01-28T00:28:00.212Z,101091.20
2023-01-28T00:30:48.943Z,101089.34
2023-01-28T00:33:37.788Z,101091.73
2023-01-28T00:36:26.940Z,101091.35
2023-01-28T00:39:15.742Z,101090.19
2023-01-28T00:42:04.973Z,101087.02
2023-01-28T00:44:53.629Z,101083.79
2023-01-28T00:47:42.813Z,101084.28
2023-01-28T00:50:31.392Z,101084.38
2023-01-28T00:53:20.766Z,101082.39
2023-01-28T00:56:12.442Z,101082.08
2023-01-28T00:59:01.069Z,101084.05
2023-01-28T01:01:50.322Z,101083.25
2023-01-28T01:04:40.014Z,101084.89
2023-01-28T01:07:34.840Z,101089.03
2023-01-28T01:10:23.611Z,101101.00
2023-01-28T01:13:12.392Z,101096.73
2023-01-28T01:16:05.103Z,101088.63
2023-01-28T01:18:54.176Z,101087.73
2023-01-28T01:21:42.870Z,101092.52
2023-01-28T01:24:35.011Z,101090.14
2023-01-28T01:27:24.020Z,101088.48
2023-01-28T01:30:14.037Z,101084.24
2023-01-28T01:33:02.906Z,101081.37
2023-01-28T01:35:57.660Z,101083.23
2023-01-28T01:38:48.381Z,101083.54
2023-01-28T01:41:37.899Z,101080.23
2023-01-28T01:45:00.139Z,101077.59
2023-01-28T01:48:06.232Z,101075.36
2023-01-28T01:51:12.500Z,101077.62
2023-01-28T01:54:02.918Z,101082.02
2023-01-28T01:56:51.797Z,101085.61
2023-01-28T01:59:40.485Z,101085.34
2023-01-28T02:02:29.588Z,101084.59
2023-01-28T02:05:20.292Z,101084.58
2023-01-28T02:08:25.611Z,101089.41
2023-01-28T02:11:14.583Z,101093.45
2023-01-28T02:14:04.209Z,101097.55
2023-01-28T02:16:53.166Z,101101.13
2023-01-28T02:19:51.647Z,101097.73
2023-01-28T02:22:59.337Z,101098.16
2023-01-28T02:26:19.754Z,101104.23
2023-01-28T02:29:44.829Z,101103.50
2023-01-28T02:32:39.101Z,101099.79
2023-01-28T02:35:50.628Z,101099.48
2023-01-28T02:38:45.868Z,101109.58
2023-01-28T02:41:41.223Z,101108.44
2023-01-28T02:44:30.295Z,101101.45
2023-01-28T02:47:38.561Z,101092.61
2023-01-28T02:50:35.878Z,101087.52
2023-01-28T02:53:43.314Z,101088.83
2023-01-28T02:56:44.406Z,101084.59
2023-01-28T02:59:37.289Z,101078.42
2023-01-28T03:02:51.054Z,101072.77
2023-01-28T03:05:58.304Z,101068.40
2023-01-28T03:09:12.699Z,101056.42
2023-01-28T03:12:23.928Z,101054.41
2023-01-28T03:15:36.475Z,101062.44
2023-01-28T03:19:10.693Z,101072.57
2023-01-28T03:22:18.270Z,101072.84
2023-01-28T03:25:28.701Z,101071.44
2023-01-28T03:28:36.815Z,101072.15
2023-01-28T03:31:44.510Z,101072.78
2023-01-28T03:34:52.935Z,101069.95
2023-01-28T03:37:42.326Z,101069.27
2023-01-28T03:40:36.336Z,101063.14
2023-01-28T03:43:25.390Z,101055.90
2023-01-28T03:46:14.601Z,101052.63
2023-01-28T03:49:03.294Z,101054.33
2023-01-28T03:51:52.214Z,101056.02
2023-01-28T03:54:40.978Z,101058.27
2023-01-28T03:57:31.595Z,101067.86
2023-01-28T04:00:22.004Z,101066.07
2023-01-28T04:03:17.859Z,101067.02
2023-01-28T04:06:13.810Z,101066.63
2023-01-28T04:09:23.909Z,101061.87
2023-01-28T04:12:39.912Z,101061.41
2023-01-28T04:15:31.014Z,101058.26
2023-01-28T04:18:27.219Z,101055.10
2023-01-28T04:21:17.555Z,101057.34
2023-01-28T04:24:06.579Z,101060.83
2023-01-28T04:26:56.492Z,101060.40
2023-01-28T04:29:45.760Z,101066.55
2023-01-28T04:32:56.560Z,101074.75
2023-01-28T04:35:59.287Z,101076.67
2023-01-28T04:39:03.326Z,101072.09
2023-01-28T04:41:57.772Z,101077.00
2023-01-28T04:45:00.857Z,101082.98
2023-01-28T04:48:08.008Z,101085.99
2023-01-28T04:51:17.580Z,101086.33
2023-01-28T04:54:30.375Z,101090.57
2023-01-28T04:57:24.272Z,101095.48
2023-01-28T05:00:13.918Z,101102.16
2023-01-28T05:03:02.592Z,101105.52
2023-01-28T05:05:51.600Z,101113.52
2023-01-28T05:08:49.397Z,101109.81
2023-01-28T05:11:39.319Z,101112.02
2023-01-28T05:14:29.343Z,101111.81
2023-01-28T05:17:24.516Z,101118.60
2023-01-28T05:20:14.325Z,101116.73
2023-01-28T05:23:03.187Z,101118.63
2023-01-28T05:26:04.178Z,101120.10
2023-01-28T05:28:52.975Z,101126.34
2023-01-28T05:31:41.927Z,101129.55
2023-01-28T05:34:30.900Z,101128.11
2023-01-28T05:37:22.458Z,101126.20
2023-01-28T05:40:15.422Z,101128.58
2023-01-28T05:43:04.331Z,101135.94
2023-01-28T05:46:03.961Z,101135.52
2023-01-28T05:49:12.494Z,101134.86
2023-01-28T05:52:19.754Z,101140.48
2023-01-28T05:55:09.035Z,101133.61
2023-01-28T05:57:57.931Z,101133.02
2023-01-28T06:00:48.212Z,101134.85
2023-01-28T06:03:38.566Z,101131.71
2023-01-28T06:06:27.618Z,101132.25
2023-01-28T06:09:19.485Z,101130.77
2023-01-28T06:12:08.296Z,101129.45
2023-01-28T06:15:11.648Z,101133.61
2023-01-28T06:18:21.335Z,101136.52
2023-01-28T06:21:11.026Z,101135.98
2023-01-28T06:24:00.160Z,101135.14
2023-01-28T06:26:49.043Z,101132.11
2023-01-28T06:29:37.754Z,101128.00
2023-01-28T06:32:27.152Z,101131.56
2023-01-28T06:35:18.441Z,101132.76
2023-01-28T06:38:07.250Z,101134.36
2023-01-28T06:40:56.220Z,101130.23
2023-01-28T06:43:45.189Z,101127.89
2023-01-28T06:46:34.416Z,101135.02
2023-01-28T06:49:23.181Z,101135.16
2023-01-28T06:52:11.830Z,101131.77
2023-01-28T06:55:01.715Z,101131.02
2023-01-28T06:57:50.545Z,101128.41
2023-01-28T07:00:39.936Z,101123.60
2023-01-28T07:03:28.833Z,101121.30
2023-01-28T07:06:20.103Z,101122.48
2023-01-28T07:09:08.875Z,101120.02
2023-01-28T07:11:57.784Z,101121.97
2023-01-28T07:14:46.535Z,101128.35
2023-01-28T07:17:40.460Z,101120.66
2023-01-28T07:20:31.565Z,101125.59
2023-01-28T07:23:20.699Z,101126.66
2023-01-28T07:26:09.397Z,101121.00
2023-01-28T07:28:58.156Z,101121.30
2023-01-28T07:31:46.967Z,101113.85
2023-01-28T07:34:39.922Z,101116.89
2023-01-28T07:37:28.760Z,101117.39
2023-01-28T07:40:18.153Z,101121.69
2023-01-28T07:43:07.295Z,101121.91
2023-01-28T07:46:02.740Z,101118.45
2023-01-28T07:48:51.519Z,101116.05
2023-01-28T07:51:41.730Z,101113.59
2023-01-28T07:54:30.986Z,101107.06
2023-01-28T07:57:23.512Z,101107.20
2023-01-28T08:00:13.079Z,101106.70
2023-01-28T08:03:04.393Z,101100.59
2023-01-28T08:05:55.057Z,101102.96
2023-01-28T08:08:43.945Z,101102.07
2023-01-28T08:11:33.325Z,101105.27
2023-01-28T08:14:22.036Z,101106.03
2023-01-28T08:17:10.788Z,101103.37
2023-01-28T08:19:59.756Z,101106.59
2023-01-28T08:22:49.693Z,101101.65
2023-01-28T08:25:38.781Z,101097.48
2023-01-28T08:28:27.737Z,101099.52
2023-01-28T08:31:16.644Z,101104.52
2023-01-28T08:34:05.381Z,101102.77
2023-01-28T08:36:54.093Z,101095.23
2023-01-28T08:39:44.306Z,101094.46
2023-01-28T08:42:36.295Z,101092.51
2023-01-28T08:45:27.784Z,101094.75
2023-01-28T08:48:17.485Z,101091.61
2023-01-28T08:51:06.145Z,101089.55
2023-01-28T08:53:54.821Z,101086.06
2023-01-28T08:56:44.954Z,101088.45
2023-01-28T08:59:33.681Z,101090.95
2023-01-28T09:02:31.535Z,101084.16
2023-01-28T09:05:21.451Z,101070.70
2023-01-28T09:08:15.077Z,101057.61
2023-01-28T09:11:03.715Z,101053.31
2023-01-28T09:13:52.453Z,101043.63
2023-01-28T09:16:41.917Z,101048.03
2023-01-28T09:19:30.609Z,101042.78
2023-01-28T09:22:19.661Z,101039.13
2023-01-28T09:25:08.898Z,101037.98
2023-01-28T09:27:58.258Z,101039.36
2023-01-28T09:30:47.055Z,101029.14
2023-01-28T09:33:36.551Z,101031.61
2023-01-28T09:36:25.285Z,101022.45
2023-01-28T09:39:14.025Z,101014.42
2023-01-28T09:42:06.033Z,101007.81
2023-01-28T09:45:02.675Z,101004.73
2023-01-28T09:47:52.815Z,101000.21
2023-01-28T09:50:46.473Z,100999.48
2023-01-28T09:53:39.511Z,101006.15
2023-01-28T09:56:33.938Z,101003.34
2023-01-28T09:59:22.966Z,101000.63
2023-01-28T12:08:34.618Z,100913.13
2023-01-28T12:11:57.505Z,100912.00
2023-01-28T12:15:04.480Z,100908.98
2023-01-28T12:18:00.074Z,100904.67
2023-01-28T12:20:57.790Z,100908.39
2023-01-28T12:23:55.746Z,100911.67
2023-01-28T12:27:20.872Z,100912.00
2023-01-28T12:30:19.415Z,100913.29
2023-01-28T12:33:23.199Z,100910.61
2023-01-28T12:36:16.830Z,100907.73
2023-01-28T12:39:31.789Z,100900.73
2023-01-28T12:42:43.675Z,100905.11
2023-01-28T12:45:38.821Z,100900.35
2023-01-28T12:48:34.337Z,100895.84
2023-01-28T12:51:25.238Z,100894.01
2023-01-28T12:54:19.363Z,100890.61
2023-01-28T12:57:09.059Z,100888.27
2023-01-28T12:59:59.392Z,100888.84
2023-01-28T13:02:53.862Z,100888.92
2023-01-28T13:05:46.810Z,100893.37
2023-01-28T13:08:36.819Z,100892.70
2023-01-28T13:11:25.614Z,100887.00
2023-01-28T13:14:14.460Z,100889.36
2023-01-28T13:17:11.054Z,100882.34
2023-01-28T13:20:00.097Z,100886.69
2023-01-28T13:22:48.704Z,100891.56
2023-01-28T13:25:48.376Z,100899.84
2023-01-28T13:28:37.072Z,100896.94
2023-01-28T13:31:25.783Z,100903.50
2023-01-28T13:34:36.526Z,100905.08
2023-01-28T13:37:29.052Z,100898.09
2023-01-28T13:40:28.413Z,100908.23
2023-01-28T13:43:27.812Z,100906.77
2023-01-28T13:46:29.479Z,100909.56
2023-01-28T13:49:45.991Z,100906.70
2023-01-28T13:52:37.983Z,100907.87
2023-01-28T13:55:43.450Z,100908.80
2023-01-28T13:59:02.500Z,100907.36
2023-01-28T14:02:03.248Z,100909.90
2023-01-28T14:04:52.013Z,100910.86
2023-01-28T14:08:02.379Z,100909.23
2023-01-28T14:10:59.193Z,100910.86
2023-01-28T14:14:18.949Z,100910.94
2023-01-28T14:17:15.109Z,100909.35
2023-01-28T14:20:04.981Z,100912.52
2023-01-28T14:22:59.671Z,100912.73
2023-01-28T14:25:48.254Z,100912.56
2023-01-28T14:28:42.008Z,100913.28
2023-01-28T14:31:35.827Z,100905.89
2023-01-28T14:34:28.192Z,100905.52
2023-01-28T14:37:19.037Z,100907.95
2023-01-28T14:40:08.613Z,100906.68
2023-01-28T14:42:57.266Z,100905.44
2023-01-28T14:45:49.108Z,100908.24
2023-01-28T14:49:02.916Z,100908.52
2023-01-28T14:52:29.221Z,100908.28
2023-01-28T14:55:23.631Z,100906.00
2023-01-28T14:58:25.026Z,100908.13
2023-01-28T15:01:28.109Z,100911.00
2023-01-28T15:04:30.771Z,100917.93
2023-01-28T15:07:20.436Z,100914.65
2023-01-28T15:10:33.078Z,100913.14
2023-01-28T15:13:25.896Z,100914.81
2023-01-28T15:16:20.853Z,100915.52
2023-01-28T15:19:09.814Z,100916.61
2023-01-28T15:22:04.478Z,100923.33
2023-01-28T15:24:53.588Z,100919.42
2023-01-28T15:27:42.267Z,100923.77
2023-01-28T15:30:32.080Z,100923.61
2023-01-28T15:33:21.398Z,100927.40
2023-01-28T15:36:10.341Z,100930.25
2023-01-28T15:38:59.473Z,100932.05
2023-01-28T15:41:52.612Z,100939.81
2023-01-28T15:44:44.869Z,100942.47
2023-01-28T15:47:33.880Z,100946.58
2023-01-28T15:50:24.143Z,100948.10
2023-01-28T15:53:14.394Z,100952.40
2023-01-28T15:56:08.277Z,100954.97
2023-01-28T15:59:02.577Z,100959.17
2023-01-28T18:05:18.165Z,100960.14
2023-01-28T18:08:10.049Z,100966.60
2023-01-28T18:11:12.847Z,100969.19
2023-01-28T18:14:01.800Z,100967.55
2023-01-28T18:16:50.596Z,100964.02
2023-01-28T18:19:39.350Z,100963.53
2023-01-28T18:22:28.097Z,100961.66
2023-01-28T18:25:20.447Z,100956.23
2023-01-28T18:28:09.209Z,100952.17
2023-01-28T18:31:05.257Z,100955.09
2023-01-28T18:33:58.747Z,100958.70
2023-01-28T18:36:47.746Z,100954.75
2023-01-28T18:39:36.675Z,100953.70
2023-01-28T18:42:25.514Z,100946.46
2023-01-28T18:45:15.207Z,100950.66
2023-01-28T18:48:04.265Z,100957.38
2023-01-28T18:50:54.443Z,100956.02
2023-01-28T18:53:43.634Z,100950.15
2023-01-28T18:56:33.700Z,100951.59
2023-01-28T18:59:22.622Z,100954.06
2023-01-28T19:02:13.279Z,100954.92
2023-01-28T19:05:02.202Z,100951.70
2023-01-28T19:07:50.918Z,100955.64
2023-01-28T19:10:39.535Z,100954.80
2023-01-28T19:13:28.871Z,100947.33
2023-01-28T19:16:18.097Z,100948.92
2023-01-28T19:19:06.997Z,100948.91
2023-01-28T19:21:55.877Z,100954.21
2023-01-28T19:24:44.705Z,100951.39
2023-01-28T19:27:33.666Z,100950.04
2023-01-28T19:30:22.487Z,100956.52
2023-01-28T19:33:12.634Z,100955.23
2023-01-28T19:36:01.575Z,100956.63
2023-01-28T19:38:50.335Z,100960.15
2023-01-28T19:41:39.615Z,100962.60
2023-01-28T19:44:29.272Z,100963.79
2023-01-28T19:47:18.031Z,100966.95
2023-01-28T19:50:07.519Z,100963.27
2023-01-28T19:52:56.784Z,100967.11
2023-01-28T19:55:45.545Z,100969.73
2023-01-28T19:58:36.562Z,100969.45
2023-01-28T20:01:29.681Z,100973.83
2023-01-28T20:04:19.030Z,100976.84
2023-01-28T20:07:07.933Z,100983.64
2023-01-28T20:09:56.810Z,100986.17
2023-01-28T20:12:45.789Z,100986.46
2023-01-28T20:15:34.837Z,100993.21
2023-01-28T20:18:23.596Z,100991.84
2023-01-28T20:21:12.248Z,100986.94
2023-01-28T20:24:01.477Z,100988.57
2023-01-28T20:26:50.240Z,100986.75
2023-01-28T20:29:39.278Z,100984.33
2023-01-28T20:32:28.029Z,100986.57
2023-01-28T20:35:17.376Z,100986.59
2023-01-28T20:38:06.505Z,100989.52
2023-01-28T20:40:55.352Z,100990.14
2023-01-28T20:43:45.430Z,100991.05
2023-01-28T20:46:36.816Z,100994.26
2023-01-28T20:49:28.016Z,101000.02
2023-01-28T20:52:17.226Z,101002.45
2023-01-28T20:55:08.054Z,101003.28
2023-01-28T20:57:56.774Z,100997.07
2023-01-28T21:00:46.874Z,100993.85
2023-01-28T21:03:35.890Z,100993.13
2023-01-28T21:06:25.162Z,100997.01
2023-01-28T21:09:14.112Z,100997.53
2023-01-28T21:12:04.054Z,101001.28
2023-01-28T21:14:53.010Z,100998.52
2023-01-28T21:17:42.156Z,100998.55
2023-01-28T21:20:32.102Z,100998.10
2023-01-28T21:23:23.407Z,100993.70
2023-01-28T21:26:12.416Z,100986.33
2023-01-28T21:29:01.275Z,100990.68
2023-01-28T21:31:50.109Z,100988.75
2023-01-28T21:34:39.239Z,100993.89
2023-01-28T21:37:28.028Z,100991.58
2023-01-28T21:40:18.705Z,100993.33
2023-01-28T21:43:07.694Z,100993.64
2023-01-28T21:45:57.294Z,100993.75
2023-01-28T21:48:46.911Z,100993.29
2023-01-28T21:51:36.477Z,100993.94
2023-01-28T21:54:26.213Z,100992.25
2023-01-28T21:57:14.910Z,100995.90
2023-01-28T22:00:04.680Z,100998.92
2023-01-28T22:03:00.256Z,101004.37
2023-01-28T22:05:55.260Z,101008.87
2023-01-28T22:08:43.982Z,101016.29
2023-01-28T22:11:36.494Z,101012.20
2023-01-28T22:14:30.472Z,101012.97
2023-01-28T22:17:19.270Z,101009.79
2023-01-28T22:20:10.151Z,101014.31
2023-01-28T22:22:58.821Z,101013.96
2023-01-28T22:25:47.645Z,101012.16
2023-01-28T22:28:37.972Z,101016.44
2023-01-28T22:31:28.084Z,101016.02
2023-01-28T22:34:16.934Z,101017.92
2023-01-28T22:37:07.302Z,101018.14
2023-01-28T22:39:56.309Z,101018.02
2023-01-28T22:42:48.022Z,101016.95
2023-01-28T22:45:36.680Z,101016.59
2023-01-28T22:48:25.364Z,101014.98
2023-01-28T22:51:21.599Z,101013.16
2023-01-28T22:54:14.964Z,101018.18
2023-01-28T22:57:03.771Z,101014.77
2023-01-28T23:00:00.073Z,101010.09
2023-01-28T23:02:49.481Z,101014.34
2023-01-28T23:05:38.562Z,101013.67
2023-01-28T23:08:29.151Z,101014.52
2023-01-28T23:11:25.674Z,101014.13
2023-01-28T23:14:33.564Z,101011.30
2023-01-28T23:17:41.094Z,101004.39
2023-01-28T23:20:48.324Z,101001.81
2023-01-28T23:23:55.415Z,100998.56
2023-01-28T23:26:45.224Z,100996.41
2023-01-28T23:29:37.177Z,100994.80
2023-01-28T23:32:26.375Z,100988.83
2023-01-28T23:35:15.132Z,100992.56
2023-01-28T23:38:03.887Z,100995.40
2023-01-28T23:40:52.550Z,100999.76
2023-01-28T23:43:41.663Z,101000.42
2023-01-28T23:46:39.551Z,100998.49
2023-01-28T23:49:28.992Z,100996.76
2023-01-28T23:52:17.817Z,100999.33
2023-01-28T23:55:06.849Z,100995.27
2023-01-28T23:57:55.615Z,100992.93
